createdAt,value
2023-02-21T00:00:07.604Z,97228.27
2023-02-21T00:03:19.870Z,97224.43
2023-02-21T00:06:06.842Z,97226.46
2023-02-21T00:08:53.835Z,97225.07
2023-02-21T00:11:41.045Z,97221.79
2023-02-21T00:14:27.904Z,97213.83
2023-02-21T00:17:15.017Z,97211.41
2023-02-21T00:20:01.943Z,97204.16
2023-02-21T00:22:48.802Z,97203.13
2023-02-21T00:25:35.900Z,97202.80
2023-02-21T00:28:23.189Z,97197.45
2023-02-21T00:31:10.331Z,97200.08
2023-02-21T00:33:57.418Z,97195.08
2023-02-21T00:36:44.217Z,97187.83
2023-02-21T00:39:31.081Z,97187.14
2023-02-21T00:42:17.873Z,97186.96
2023-02-21T00:45:04.741Z,97180.74
2023-02-21T00:47:51.570Z,97177.09
2023-02-21T00:50:38.691Z,97178.27
2023-02-21T00:53:25.550Z,97174.61
2023-02-21T00:56:12.557Z,97177.34
2023-02-21T00:58:59.784Z,97172.45
2023-02-21T01:01:46.781Z,97174.51
2023-02-21T01:04:34.096Z,97175.21
2023-02-21T01:07:21.268Z,97171.24
2023-02-21T01:10:08.367Z,97169.50
2023-02-21T01:12:55.959Z,97167.76
2023-02-21T01:15:43.733Z,97173.09
2023-02-21T01:18:30.661Z,97173.60
2023-02-21T01:21:17.300Z,97169.77
2023-02-21T01:24:04.247Z,97169.55
2023-02-21T01:26:51.749Z,97171.59
2023-02-21T01:29:38.529Z,97166.40
2023-02-21T01:32:25.455Z,97157.92
2023-02-21T01:35:12.216Z,97155.65
2023-02-21T01:38:00.326Z,97151.91
2023-02-21T01:40:47.347Z,97154.70
2023-02-21T01:43:41.518Z,97148.27
2023-02-21T01:46:40.607Z,97153.82
2023-02-21T01:49:37.978Z,97150.65
2023-02-21T01:52:25.462Z,97138.14
2023-02-21T01:55:15.045Z,97126.77
2023-02-21T01:58:04.865Z,97118.66
2023-02-21T02:00:52.691Z,97112.20
2023-02-21T02:03:41.421Z,97112.09
2023-02-21T02:06:33.343Z,97113.30
2023-02-21T02:09:48.985Z,97107.96
2023-02-21T02:12:33.214Z,97105.25
2023-02-21T02:15:23.747Z,97104.95
2023-02-21T02:18:17.476Z,97107.20
2023-02-21T02:21:21.765Z,97105.80
2023-02-21T02:24:27.747Z,97103.10
2023-02-21T02:27:38.131Z,97100.11
2023-02-21T02:30:25.235Z,97097.48
2023-02-21T02:33:15.608Z,97099.38
2023-02-21T02:36:05.110Z,97093.23
2023-02-21T02:38:42.290Z,97088.16
2023-02-21T02:41:25.324Z,97084.00
2023-02-21T02:44:02.703Z,97084.16
2023-02-21T02:46:35.702Z,97086.39
2023-02-21T02:49:13.590Z,97082.26
2023-02-21T02:51:42.279Z,97079.11
2023-02-21T02:54:11.588Z,97077.95
2023-02-21T02:56:39.942Z,97069.66
2023-02-21T02:59:22.066Z,97068.36
2023-02-21T03:01:51.925Z,97068.40
2023-02-21T03:04:32.430Z,97064.61
2023-02-21T03:07:31.686Z,97060.42
2023-02-21T03:10:35.232Z,97060.19
2023-02-21T03:13:15.826Z,97058.39
2023-02-21T03:15:57.130Z,97055.06
2023-02-21T03:18:48.609Z,97056.63
2023-02-21T03:21:25.244Z,97048.65
2023-02-21T03:23:57.650Z,97048.11
2023-02-21T03:26:30.763Z,97047.57
2023-02-21T03:29:05.130Z,97041.02
2023-02-21T03:31:43.789Z,97042.06
2023-02-21T03:34:12.261Z,97048.31
2023-02-21T03:36:40.851Z,97048.35
2023-02-21T03:39:10.169Z,97051.38
2023-02-21T03:41:38.634Z,97048.47
2023-02-21T03:44:07.231Z,97050.91
2023-02-21T03:46:35.388Z,97055.23
2023-02-21T03:49:03.535Z,97058.83
2023-02-21T03:51:31.773Z,97055.45
2023-02-21T03:54:00.440Z,97051.39
2023-02-21T03:56:41.887Z,97052.67
2023-02-21T03:59:39.606Z,97046.89
2023-02-21T04:02:09.233Z,97045.83
2023-02-21T04:04:38.021Z,97046.35
2023-02-21T04:07:12.473Z,97049.61
2023-02-21T04:09:41.592Z,97048.33
2023-02-21T04:12:10.776Z,97046.34
2023-02-21T04:14:40.693Z,97046.79
2023-02-21T04:17:10.278Z,97042.52
2023-02-21T04:19:38.812Z,97040.77
2023-02-21T04:22:07.812Z,97041.31
2023-02-21T04:24:36.708Z,97039.27
2023-02-21T04:27:05.054Z,97035.83
2023-02-21T04:29:36.800Z,97036.04
2023-02-21T04:32:05.621Z,97036.27
2023-02-21T04:34:35.139Z,97028.91
2023-02-21T04:37:03.618Z,97029.76
2023-02-21T04:39:33.405Z,97026.73
2023-02-21T04:42:01.819Z,97025.13
2023-02-21T04:44:31.364Z,97029.31
2023-02-21T04:46:59.634Z,97025.30
2023-02-21T04:49:28.400Z,97019.15
2023-02-21T04:51:56.682Z,97017.86
2023-02-21T04:54:25.454Z,97015.20
2023-02-21T04:56:54.322Z,97011.11
2023-02-21T04:59:23.071Z,97013.92
2023-02-21T05:01:51.631Z,97010.99
2023-02-21T05:04:20.312Z,97005.73
2023-02-21T05:06:48.773Z,97007.53
2023-02-21T05:09:17.209Z,97009.80
2023-02-21T05:11:45.523Z,97006.08
2023-02-21T05:14:13.751Z,97007.43
2023-02-21T05:16:41.955Z,97016.26
2023-02-21T05:19:10.328Z,97022.61
2023-02-21T05:21:39.131Z,97025.20
2023-02-21T05:24:08.828Z,97021.70
2023-02-21T05:26:38.515Z,97011.77
2023-02-21T05:29:06.841Z,97012.77
2023-02-21T05:31:35.264Z,97016.33
2023-02-21T05:34:03.900Z,97022.42
2023-02-21T05:36:32.538Z,97021.34
2023-02-21T05:39:01.337Z,97031.69
2023-02-21T05:41:30.076Z,97031.23
2023-02-21T05:43:58.796Z,97034.11
2023-02-21T05:46:35.919Z,97042.05
2023-02-21T05:49:05.077Z,97036.81
2023-02-21T05:51:42.564Z,97042.16
2023-02-21T05:54:16.852Z,97045.97
2023-02-21T05:56:46.949Z,97048.41
2023-02-21T05:59:19.207Z,97030.86
2023-02-21T06:01:48.776Z,97040.13
2023-02-21T06:04:18.112Z,97037.84
2023-02-21T06:06:46.357Z,97033.44
2023-02-21T06:09:14.713Z,97038.88
2023-02-21T06:11:42.897Z,97032.23
2023-02-21T06:14:17.565Z,97040.46
2023-02-21T06:16:46.927Z,97042.70
2023-02-21T06:19:17.045Z,97039.86
2023-02-21T06:21:45.772Z,97037.75
2023-02-21T06:24:14.356Z,97039.38
2023-02-21T06:26:43.264Z,97031.88
2023-02-21T06:29:11.940Z,97036.58
2023-02-21T06:31:40.492Z,97034.58
2023-02-21T06:34:09.230Z,97033.95
2023-02-21T06:36:39.552Z,97046.11
2023-02-21T06:39:08.839Z,97050.23
2023-02-21T06:41:37.264Z,97048.03
2023-02-21T06:44:05.769Z,97055.57
2023-02-21T06:46:36.821Z,97045.54
2023-02-21T06:49:05.548Z,97042.21
2023-02-21T06:51:41.872Z,97045.20
2023-02-21T06:54:11.444Z,97042.70
2023-02-21T06:56:40.008Z,97027.31
2023-02-21T06:59:10.045Z,97034.53
2023-02-21T07:01:39.899Z,97034.16
2023-02-21T07:04:08.825Z,97031.38
2023-02-21T07:06:37.644Z,97031.89
2023-02-21T07:09:06.252Z,97026.44
2023-02-21T07:11:35.905Z,97025.09
2023-02-21T07:14:04.782Z,97021.36
2023-02-21T07:16:33.533Z,97019.73
2023-02-21T07:19:02.047Z,97028.35
2023-02-21T07:21:31.157Z,97017.14
2023-02-21T07:23:59.655Z,97035.77
2023-02-21T07:26:29.423Z,97032.88
2023-02-21T07:28:58.142Z,97022.92
2023-02-21T07:31:27.371Z,97030.37
2023-02-21T07:33:56.123Z,97039.19
2023-02-21T07:36:25.558Z,97040.04
2023-02-21T07:38:54.723Z,97039.96
2023-02-21T07:41:23.801Z,97045.10
2023-02-21T07:43:52.386Z,97042.27
2023-02-21T07:46:21.155Z,97045.70
2023-02-21T07:48:50.721Z,97050.34
2023-02-21T07:51:20.093Z,97050.83
2023-02-21T07:53:48.653Z,97059.14
2023-02-21T07:56:17.449Z,97064.44
2023-02-21T07:58:46.165Z,97055.04
2023-02-21T08:01:14.858Z,97054.30
2023-02-21T08:03:43.502Z,97055.10
2023-02-21T08:06:12.444Z,97054.58
2023-02-21T08:08:41.124Z,97047.10
2023-02-21T08:11:10.035Z,97052.54
2023-02-21T08:13:38.861Z,97049.52
2023-02-21T08:16:07.963Z,97043.99
2023-02-21T08:18:36.796Z,97042.96
2023-02-21T08:21:12.736Z,97037.33
2023-02-21T08:23:41.616Z,97031.82
2023-02-21T08:26:09.954Z,97018.65
2023-02-21T08:28:38.672Z,97026.04
2023-02-21T08:31:07.705Z,97030.11
2023-02-21T08:33:36.390Z,97031.70
2023-02-21T08:36:05.815Z,97037.65
2023-02-21T08:38:34.442Z,97035.93
2023-02-21T08:41:04.693Z,97033.73
2023-02-21T08:43:34.252Z,97034.52
2023-02-21T08:46:03.373Z,97033.83
2023-02-21T08:48:31.933Z,97030.77
2023-02-21T08:51:00.374Z,97030.27
2023-02-21T08:53:29.311Z,97030.61
2023-02-21T08:55:57.840Z,97023.92
2023-02-21T08:58:26.347Z,97026.52
2023-02-21T09:00:55.014Z,97036.80
2023-02-21T09:03:23.460Z,97040.22
2023-02-21T09:05:52.135Z,97032.15
2023-02-21T09:08:22.481Z,97031.44
2023-02-21T09:10:51.262Z,97030.48
2023-02-21T09:13:19.875Z,97028.75
2023-02-21T09:15:48.287Z,97024.52
2023-02-21T09:18:17.769Z,97024.08
2023-02-21T09:20:53.470Z,97023.97
2023-02-21T09:23:22.296Z,97026.17
2023-02-21T09:25:51.331Z,97025.52
2023-02-21T09:28:21.000Z,97022.34
2023-02-21T09:30:50.447Z,97012.94
2023-02-21T09:33:19.627Z,97020.67
2023-02-21T09:35:48.184Z,97031.25
2023-02-21T09:38:16.682Z,97025.89
2023-02-21T09:40:59.410Z,97031.70
2023-02-21T09:43:40.359Z,97031.02
2023-02-21T09:46:24.243Z,97024.54
2023-02-21T09:48:54.850Z,97022.41
2023-02-21T09:51:25.300Z,97026.14
2023-02-21T09:53:56.900Z,97023.28
2023-02-21T09:56:36.678Z,97012.23
2023-02-21T09:59:13.694Z,97013.45
2023-02-21T10:02:02.743Z,97017.37
2023-02-21T10:05:08.971Z,97022.48
2023-02-21T10:08:05.610Z,97015.18
2023-02-21T10:10:45.885Z,97013.80
2023-02-21T10:13:41.644Z,97010.25
2023-02-21T10:16:24.687Z,97013.82
2023-02-21T10:19:18.119Z,97009.23
2023-02-21T10:21:49.286Z,97004.88
2023-02-21T10:24:29.065Z,97009.86
2023-02-21T10:27:14.162Z,97002.76
2023-02-21T10:30:02.207Z,97003.52
2023-02-21T10:32:32.836Z,97002.48
2023-02-21T10:35:02.919Z,96992.41
2023-02-21T10:37:47.653Z,96981.83
2023-02-21T10:40:34.015Z,96974.14
2023-02-21T10:43:22.994Z,96980.45
2023-02-21T10:46:05.879Z,96978.30
2023-02-21T10:48:37.578Z,96973.19
2023-02-21T10:51:15.531Z,96980.83
2023-02-21T10:53:47.391Z,96966.35
2023-02-21T10:56:16.880Z,96970.45
2023-02-21T10:58:48.212Z,96966.25
2023-02-21T11:01:22.444Z,96962.99
2023-02-21T11:04:08.281Z,96953.02
2023-02-21T11:06:39.582Z,96952.38
2023-02-21T11:09:38.159Z,96954.87
2023-02-21T11:12:15.917Z,96941.61
2023-02-21T11:14:51.755Z,96944.75
2023-02-21T11:17:23.063Z,96949.04
2023-02-21T11:19:57.766Z,96953.90
2023-02-21T11:22:35.703Z,96938.45
2023-02-21T11:25:06.799Z,96943.41
2023-02-21T11:27:37.826Z,96951.09
2023-02-21T11:30:19.992Z,96953.64
2023-02-21T11:32:57.179Z,96936.94
2023-02-21T11:35:27.839Z,96948.16
2023-02-21T11:37:57.818Z,96943.67
2023-02-21T11:40:44.766Z,96948.02
2023-02-21T11:43:33.855Z,96950.45
2023-02-21T11:46:13.934Z,96956.77
2023-02-21T11:49:07.146Z,96946.78
2023-02-21T11:51:50.270Z,96939.61
2023-02-21T11:54:22.771Z,96948.96
2023-02-21T11:57:12.627Z,96965.48
2023-02-21T12:00:43.088Z,96955.97
2023-02-21T12:03:34.016Z,96960.58
2023-02-21T12:06:14.241Z,96956.39
2023-02-21T12:09:01.333Z,96959.02
2023-02-21T12:11:42.098Z,96957.27
2023-02-21T12:14:28.753Z,96957.18
2023-02-21T12:17:03.558Z,96964.66
2023-02-21T12:19:55.764Z,96960.59
2023-02-21T12:22:36.795Z,96955.19
2023-02-21T12:25:23.884Z,96946.20
2023-02-21T12:28:13.944Z,96945.35
2023-02-21T12:31:31.597Z,96949.98
2023-02-21T12:34:32.660Z,96957.38
2023-02-21T12:37:12.008Z,96956.18
2023-02-21T12:40:11.492Z,96961.02
2023-02-21T12:42:58.853Z,96988.30
2023-02-21T12:45:43.162Z,96970.55
2023-02-21T12:48:17.908Z,96974.73
2023-02-21T12:50:52.855Z,96976.95
2023-02-21T12:53:31.726Z,96981.83
2023-02-21T12:56:01.024Z,96979.39
2023-02-21T12:58:41.155Z,96979.16
2023-02-21T13:01:37.799Z,96982.70
2023-02-21T13:04:15.667Z,96998.02
2023-02-21T13:06:52.609Z,97003.34
2023-02-21T13:09:34.964Z,97001.41
2023-02-21T13:12:15.843Z,97001.70
2023-02-21T13:15:14.681Z,96993.89
2023-02-21T13:17:45.312Z,96997.77
2023-02-21T13:20:19.650Z,97011.75
2023-02-21T13:23:41.510Z,97004.71
2023-02-21T13:26:40.660Z,97004.20
2023-02-21T13:29:31.596Z,97010.27
2023-02-21T13:32:13.923Z,97005.70
2023-02-21T13:34:46.389Z,97014.02
2023-02-21T13:37:28.201Z,97006.35
2023-02-21T13:40:07.697Z,97003.48
2023-02-21T13:42:39.476Z,96996.02
2023-02-21T13:45:21.990Z,96988.80
2023-02-21T13:48:21.994Z,96992.83
2023-02-21T13:50:59.058Z,96994.96
2023-02-21T13:53:34.314Z,96992.98
2023-02-21T13:56:08.800Z,96998.27
2023-02-21T13:58:42.144Z,96993.41
2023-02-21T14:01:30.552Z,96988.74
2023-02-21T14:03:58.919Z,96984.29
2023-02-21T14:06:33.742Z,96984.56
2023-02-21T14:09:12.004Z,96969.72
2023-02-21T14:11:49.024Z,96975.18
2023-02-21T14:14:29.679Z,96971.89
2023-02-21T14:17:08.287Z,96980.35
2023-02-21T14:19:44.531Z,96979.58
2023-02-21T14:22:22.152Z,96977.45
2023-02-21T14:24:55.850Z,96980.17
2023-02-21T14:27:24.268Z,96977.28
2023-02-21T14:30:01.745Z,96971.13
2023-02-21T14:32:48.013Z,96959.71
2023-02-21T14:35:16.970Z,96964.77
2023-02-21T14:37:59.010Z,96968.41
2023-02-21T14:40:33.554Z,96971.93
2023-02-21T14:43:24.974Z,96972.01
2023-02-21T14:46:36.438Z,96973.27
2023-02-21T14:49:44.949Z,96972.80
2023-02-21T14:52:51.555Z,96969.93
2023-02-21T14:55:32.674Z,96974.09
2023-02-21T14:58:20.821Z,96977.85
2023-02-21T15:01:06.270Z,96980.23
2023-02-21T15:03:51.818Z,96985.62
2023-02-21T15:06:25.623Z,96984.98
2023-02-21T15:08:55.200Z,96980.19
2023-02-21T15:11:40.242Z,96982.25
2023-02-21T15:14:28.126Z,96988.68
2023-02-21T15:17:00.596Z,96989.52
2023-02-21T15:19:35.572Z,96985.90
2023-02-21T15:22:26.661Z,96992.65
2023-02-21T15:25:10.239Z,97000.75
2023-02-21T15:27:54.267Z,97002.10
2023-02-21T15:30:38.686Z,97005.46
2023-02-21T15:33:19.913Z,97004.40
2023-02-21T15:36:19.789Z,97010.63
2023-02-21T15:39:00.956Z,97018.30
2023-02-21T15:41:51.613Z,97024.41
2023-02-21T15:44:27.150Z,97025.69
2023-02-21T15:47:05.479Z,97027.55
2023-02-21T15:49:45.513Z,97029.73
2023-02-21T15:52:40.374Z,97033.95
2023-02-21T15:55:21.048Z,97034.19
2023-02-21T15:58:01.733Z,97034.52
2023-02-21T16:00:32.105Z,97034.42
2023-02-21T16:03:36.764Z,97036.27
2023-02-21T16:06:23.389Z,97041.27
2023-02-21T16:09:19.241Z,97048.70
2023-02-21T16:12:08.048Z,97056.30
2023-02-21T16:14:49.497Z,97053.77
2023-02-21T16:17:33.815Z,97054.58
2023-02-21T16:20:19.258Z,97055.45
2023-02-21T16:23:08.048Z,97056.16
2023-02-21T16:26:16.820Z,97056.73
2023-02-21T16:28:45.936Z,97063.37
2023-02-21T16:31:25.812Z,97065.83
2023-02-21T16:33:55.083Z,97068.08
2023-02-21T16:36:33.112Z,97074.89
2023-02-21T16:39:01.890Z,97079.02
2023-02-21T16:41:30.522Z,97079.45
2023-02-21T16:43:58.785Z,97080.41
2023-02-21T16:46:30.329Z,97084.67
2023-02-21T16:49:00.353Z,97091.34
2023-02-21T16:51:33.977Z,97091.70
2023-02-21T16:54:03.371Z,97100.02
2023-02-21T16:56:32.240Z,97100.42
2023-02-21T16:59:09.614Z,97103.61
2023-02-21T17:01:39.698Z,97104.02
2023-02-21T17:04:27.399Z,97108.82
2023-02-21T17:07:01.573Z,97108.84
2023-02-21T17:09:34.367Z,97107.48
2023-02-21T17:12:03.022Z,97112.38
2023-02-21T17:14:31.565Z,97114.88
2023-02-21T17:17:00.119Z,97118.60
2023-02-21T17:19:28.929Z,97120.23
2023-02-21T17:21:58.504Z,97119.59
2023-02-21T17:24:27.235Z,97123.03
2023-02-21T17:26:55.690Z,97122.77
2023-02-21T17:29:25.607Z,97115.78
2023-02-21T17:31:55.694Z,97116.57
2023-02-21T17:34:24.598Z,97123.08
2023-02-21T17:36:53.934Z,97120.55
2023-02-21T17:39:22.103Z,97117.52
2023-02-21T17:41:51.780Z,97123.97
2023-02-21T17:44:20.627Z,97123.20
2023-02-21T17:46:51.757Z,97117.95
2023-02-21T17:49:23.039Z,97119.54
2023-02-21T17:51:53.113Z,97118.27
2023-02-21T17:54:24.661Z,97120.55
2023-02-21T17:56:53.586Z,97125.64
2023-02-21T17:59:23.070Z,97128.13
2023-02-21T18:01:55.758Z,97132.03
2023-02-21T18:04:25.056Z,97132.39
2023-02-21T18:06:54.603Z,97136.28
2023-02-21T18:09:24.697Z,97139.08
2023-02-21T18:11:55.596Z,97139.39
2023-02-21T18:14:30.537Z,97143.35
2023-02-21T18:16:59.653Z,97146.12
2023-02-21T18:19:27.915Z,97144.55
2023-02-21T18:21:56.820Z,97147.63
2023-02-21T18:24:27.770Z,97147.50
2023-02-21T18:26:56.238Z,97148.72
2023-02-21T18:29:25.179Z,97148.18
2023-02-21T18:31:54.759Z,97147.61
2023-02-21T18:34:24.435Z,97146.36
2023-02-21T18:36:54.765Z,97150.52
2023-02-21T18:39:23.970Z,97149.45
2023-02-21T18:41:53.114Z,97154.15
2023-02-21T18:44:21.366Z,97153.13
2023-02-21T18:46:54.789Z,97161.89
2023-02-21T18:49:23.971Z,97164.67
2023-02-21T18:51:53.656Z,97167.46
2023-02-21T18:54:22.149Z,97169.34
2023-02-21T18:56:52.606Z,97173.86
2023-02-21T18:59:23.247Z,97176.13
2023-02-21T19:01:54.254Z,97174.91
2023-02-21T19:04:23.172Z,97172.10
2023-02-21T19:06:51.783Z,97174.21
2023-02-21T19:09:20.316Z,97168.98
2023-02-21T19:11:48.587Z,97172.34
2023-02-21T19:14:16.960Z,97172.53
2023-02-21T19:16:45.744Z,97173.58
2023-02-21T19:19:15.161Z,97170.06
2023-02-21T19:21:45.562Z,97177.02
2023-02-21T19:24:14.370Z,97180.11
2023-02-21T19:26:43.306Z,97180.30
2023-02-21T19:29:11.646Z,97181.85
2023-02-21T19:31:40.201Z,97185.11
2023-02-21T19:34:10.646Z,97184.92
2023-02-21T19:36:39.306Z,97185.98
2023-02-21T19:39:10.272Z,97190.33
2023-02-21T19:41:39.400Z,97191.04
2023-02-21T19:44:08.777Z,97195.27
2023-02-21T19:46:37.400Z,97195.27
2023-02-21T19:49:07.266Z,97195.66
2023-02-21T19:51:36.053Z,97196.56
2023-02-21T19:54:04.390Z,97192.77
2023-02-21T19:56:32.726Z,97192.83
2023-02-21T19:59:01.163Z,97193.27
2023-02-21T20:01:30.789Z,97188.97
2023-02-21T20:04:00.634Z,97189.20
2023-02-21T20:06:34.326Z,97191.04
2023-02-21T20:09:04.968Z,97198.42
2023-02-21T20:11:33.874Z,97202.50
2023-02-21T20:14:02.477Z,97207.46
2023-02-21T20:16:34.922Z,97203.61
2023-02-21T20:19:04.185Z,97205.33
2023-02-21T20:21:33.433Z,97213.89
2023-02-21T20:24:03.813Z,97210.08
2023-02-21T20:26:33.112Z,97211.39
2023-02-21T20:29:01.877Z,97214.46
2023-02-21T20:31:37.909Z,97212.48
2023-02-21T20:34:07.207Z,97213.09
2023-02-21T20:36:41.058Z,97217.60
2023-02-21T20:39:23.224Z,97218.90
2023-02-21T20:41:51.512Z,97220.92
2023-02-21T20:44:20.036Z,97223.07
2023-02-21T20:46:48.697Z,97225.58
2023-02-21T20:49:17.161Z,97228.20
2023-02-21T20:51:45.643Z,97229.95
2023-02-21T20:54:22.207Z,97230.84
2023-02-21T20:56:54.368Z,97232.86
2023-02-21T20:59:27.322Z,97237.33
2023-02-21T21:01:58.095Z,97240.59
2023-02-21T21:04:35.938Z,97242.64
2023-02-21T21:07:12.886Z,97248.76
2023-02-21T21:09:42.130Z,97247.92
2023-02-21T21:12:16.058Z,97254.45
2023-02-21T21:14:48.434Z,97255.49
2023-02-21T21:17:19.570Z,97255.73
2023-02-21T21:19:49.753Z,97254.70
2023-02-21T21:22:22.435Z,97253.73
2023-02-21T21:24:52.610Z,97252.60
2023-02-21T21:27:22.741Z,97257.91
2023-02-21T21:29:53.752Z,97257.73
2023-02-21T21:32:24.013Z,97258.14
2023-02-21T21:34:55.397Z,97254.55
2023-02-21T21:37:29.941Z,97257.94
2023-02-21T21:39:58.335Z,97254.44
2023-02-21T21:42:29.309Z,97254.86
2023-02-21T21:44:58.089Z,97256.06
2023-02-21T21:47:32.250Z,97255.57
2023-02-21T21:50:03.194Z,97258.72
2023-02-21T21:52:33.071Z,97255.63
2023-02-21T21:55:02.430Z,97255.85
2023-02-21T21:57:30.682Z,97259.43
2023-02-21T21:59:59.219Z,97262.52
2023-02-21T22:02:27.529Z,97260.88
2023-02-21T22:04:56.327Z,97261.24
2023-02-21T22:07:25.384Z,97261.95
2023-02-21T22:09:54.519Z,97265.83
2023-02-21T22:12:23.076Z,97263.58
2023-02-21T22:14:51.359Z,97267.07
2023-02-21T22:17:19.896Z,97265.48
2023-02-21T22:19:48.143Z,97267.72
2023-02-21T22:22:16.819Z,97270.70
2023-02-21T22:24:46.453Z,97274.74
2023-02-21T22:27:15.491Z,97279.13
2023-02-21T22:29:44.043Z,97280.73
2023-02-21T22:32:12.984Z,97283.05
2023-02-21T22:34:41.248Z,97288.41
2023-02-21T22:37:10.576Z,97289.84
2023-02-21T22:39:39.280Z,97292.19
2023-02-21T22:42:09.180Z,97292.75
2023-02-21T22:44:39.923Z,97294.40
2023-02-21T22:47:08.500Z,97294.83
2023-02-21T22:49:36.986Z,97296.29
2023-02-21T22:52:05.409Z,97299.14
2023-02-21T22:54:37.118Z,97299.73
2023-02-21T22:57:05.489Z,97294.54
2023-02-21T22:59:36.520Z,97299.77
2023-02-21T23:02:05.108Z,97299.95
2023-02-21T23:04:38.281Z,97299.63
2023-02-21T23:07:07.576Z,97298.52
2023-02-21T23:09:37.492Z,97299.41
2023-02-21T23:12:07.440Z,97300.77
2023-02-21T23:14:35.954Z,97298.37
2023-02-21T23:17:04.560Z,97298.40
2023-02-21T23:19:33.379Z,97301.45
2023-02-21T23:22:03.987Z,97303.79
2023-02-21T23:24:32.844Z,97309.77
2023-02-21T23:27:03.361Z,97312.11
2023-02-21T23:29:32.458Z,97312.58
2023-02-21T23:32:10.301Z,97312.71
2023-02-21T23:34:41.067Z,97311.23
2023-02-21T23:37:12.912Z,97305.89
2023-02-21T23:39:46.937Z,97311.17
2023-02-21T23:42:17.895Z,97312.13
2023-02-21T23:44:48.662Z,97312.83
2023-02-21T23:47:17.453Z,97315.83
2023-02-21T23:49:46.152Z,97307.73
2023-02-21T23:52:16.561Z,97316.85
2023-02-21T23:54:47.545Z,97315.80
2023-02-21T23:57:16.216Z,97317.40
2023-02-21T23:59:44.885Z,97317.08
